sensor_id;sensor_type;location;lat;lon;timestamp;pressure;altitude;pressure_sealevel;temperature;humidity
60817;BME280;51921;51.518;-3.188;2022-10-17T00:02:17;100342.68;;;13.58;100.00
60817;BME280;51921;51.518;-3.188;2022-10-17T00:04:42;100327.69;;;13.53;100.00
60817;BME280;51921;51.518;-3.188;2022-10-17T00:07:08;100337.02;;;13.54;100.00
60817;BME280;51921;51.518;-3.188;2022-10-17T00:09:33;100328.63;;;13.65;100.00
60817;BME280;51921;51.518;-3.188;2022-10-17T00:11:59;100331.37;;;13.89;100.00
60817;BME280;51921;51.518;-3.188;2022-10-17T00:14:24;100338.95;;;13.24;100.00
60817;BME280;51921;51.518;-3.188;2022-10-17T00:16:50;100340.22;;;14.36;100.00
60817;BME280;51921;51.518;-3.188;2022-10-17T00:19:15;100343.67;;;14.10;100.00
60817;BME280;51921;51.518;-3.188;2022-10-17T00:21:40;100352.05;;;13.78;100.00
60817;BME280;51921;51.518;-3.188;2022-10-17T00:24:06;100351.94;;;14.61;100.00
60817;BME280;51921;51.518;-3.188;2022-10-17T00:26:31;100348.26;;;13.78;100.00
60817;BME280;51921;51.518;-3.188;2022-10-17T00:28:56;100351.41;;;14.96;100.00
60817;BME280;51921;51.518;-3.188;2022-10-17T00:31:23;100357.58;;;14.32;100.00
60817;BME280;51921;51.518;-3.188;2022-10-17T00:33:47;100373.23;;;13.71;100.00
60817;BME280;51921;51.518;-3.188;2022-10-17T00:36:14;100377.96;;;13.95;100.00
60817;BME280;51921;51.518;-3.188;2022-10-17T00:38:38;100387.82;;;13.85;100.00
60817;BME280;51921;51.518;-3.188;2022-10-17T00:41:05;100383.39;;;14.11;100.00
60817;BME280;51921;51.518;-3.188;2022-10-17T00:43:28;100389.26;;;14.21;100.00
60817;BME280;51921;51.518;-3.188;2022-10-17T00:45:54;100397.52;;;14.48;100.00
60817;BME280;51921;51.518;-3.188;2022-10-17T00:48:20;100400.84;;;15.03;100.00
60817;BME280;51921;51.518;-3.188;2022-10-17T00:50:46;100400.53;;;14.50;100.00
60817;BME280;51921;51.518;-3.188;2022-10-17T00:53:10;100400.90;;;15.85;99.25
60817;BME280;51921;51.518;-3.188;2022-10-17T00:55:41;100415.31;;;15.71;97.43
60817;BME280;51921;51.518;-3.188;2022-10-17T00:58:02;100417.30;;;16.11;96.32
60817;BME280;51921;51.518;-3.188;2022-10-17T01:00:26;100418.58;;;16.51;93.97
60817;BME280;51921;51.518;-3.188;2022-10-17T01:02:51;100424.21;;;16.24;93.04
60817;BME280;51921;51.518;-3.188;2022-10-17T01:05:17;100425.25;;;16.66;91.31
60817;BME280;51921;51.518;-3.188;2022-10-17T01:07:43;100427.64;;;15.86;92.44
60817;BME280;51921;51.518;-3.188;2022-10-17T01:10:08;100434.72;;;16.41;90.22
60817;BME280;51921;51.518;-3.188;2022-10-17T01:12:41;100441.20;;;15.97;91.03
60817;BME280;51921;51.518;-3.188;2022-10-17T01:15:07;100446.54;;;16.05;90.71
60817;BME280;51921;51.518;-3.188;2022-10-17T01:17:31;100443.99;;;16.28;89.68
60817;BME280;51921;51.518;-3.188;2022-10-17T01:20:13;100444.28;;;16.56;89.00
60817;BME280;51921;51.518;-3.188;2022-10-17T01:22:19;100447.85;;;16.83;87.50
60817;BME280;51921;51.518;-3.188;2022-10-17T01:24:46;100454.26;;;15.62;91.22
60817;BME280;51921;51.518;-3.188;2022-10-17T01:27:22;100453.80;;;15.78;90.30
60817;BME280;51921;51.518;-3.188;2022-10-17T01:29:37;100460.80;;;15.85;89.63
60817;BME280;51921;51.518;-3.188;2022-10-17T01:31:58;100454.02;;;16.24;89.73
60817;BME280;51921;51.518;-3.188;2022-10-17T01:34:27;100442.99;;;15.23;90.70
60817;BME280;51921;51.518;-3.188;2022-10-17T01:36:50;100448.71;;;15.09;94.29
60817;BME280;51921;51.518;-3.188;2022-10-17T01:39:16;100450.05;;;15.30;91.37
60817;BME280;51921;51.518;-3.188;2022-10-17T01:41:40;100456.11;;;15.36;90.76
60817;BME280;51921;51.518;-3.188;2022-10-17T01:44:06;100464.51;;;14.29;93.18
60817;BME280;51921;51.518;-3.188;2022-10-17T01:46:31;100470.13;;;14.22;93.77
60817;BME280;51921;51.518;-3.188;2022-10-17T01:48:55;100469.99;;;14.17;94.15
60817;BME280;51921;51.518;-3.188;2022-10-17T01:51:22;100471.39;;;14.48;94.38
60817;BME280;51921;51.518;-3.188;2022-10-17T01:53:48;100482.13;;;14.58;91.13
60817;BME280;51921;51.518;-3.188;2022-10-17T01:56:12;100486.48;;;14.75;90.05
60817;BME280;51921;51.518;-3.188;2022-10-17T01:58:38;100485.29;;;15.79;87.20
60817;BME280;51921;51.518;-3.188;2022-10-17T02:01:02;100490.07;;;13.81;91.31
60817;BME280;51921;51.518;-3.188;2022-10-17T02:03:26;100489.74;;;14.14;92.18
60817;BME280;51921;51.518;-3.188;2022-10-17T02:05:50;100489.60;;;14.23;92.10
60817;BME280;51921;51.518;-3.188;2022-10-17T02:08:24;100484.31;;;14.54;89.43
60817;BME280;51921;51.518;-3.188;2022-10-17T02:10:45;100495.50;;;13.52;92.38
60817;BME280;51921;51.518;-3.188;2022-10-17T02:13:11;100495.81;;;13.71;91.77
60817;BME280;51921;51.518;-3.188;2022-10-17T02:15:44;100495.04;;;14.50;90.46
60817;BME280;51921;51.518;-3.188;2022-10-17T02:18:06;100491.32;;;13.97;88.86
60817;BME280;51921;51.518;-3.188;2022-10-17T02:20:24;100492.09;;;15.16;86.49
60817;BME280;51921;51.518;-3.188;2022-10-17T02:22:53;100485.32;;;13.91;88.30
60817;BME280;51921;51.518;-3.188;2022-10-17T02:25:19;100486.05;;;13.99;87.80
60817;BME280;51921;51.518;-3.188;2022-10-17T02:27:44;100493.31;;;13.63;88.74
60817;BME280;51921;51.518;-3.188;2022-10-17T02:30:09;100495.93;;;14.44;86.61
60817;BME280;51921;51.518;-3.188;2022-10-17T02:32:33;100489.14;;;14.38;85.88
60817;BME280;51921;51.518;-3.188;2022-10-17T02:34:56;100481.59;;;13.46;88.97
60817;BME280;51921;51.518;-3.188;2022-10-17T02:37:24;100479.46;;;12.71;91.84
60817;BME280;51921;51.518;-3.188;2022-10-17T02:39:46;100477.06;;;13.35;89.85
60817;BME280;51921;51.518;-3.188;2022-10-17T02:42:12;100489.77;;;13.15;88.67
60817;BME280;51921;51.518;-3.188;2022-10-17T02:44:37;100494.67;;;12.42;89.56
60817;BME280;51921;51.518;-3.188;2022-10-17T02:47:08;100505.94;;;12.13;89.27
60817;BME280;51921;51.518;-3.188;2022-10-17T02:49:29;100502.75;;;12.29;89.44
60817;BME280;51921;51.518;-3.188;2022-10-17T02:51:57;100505.36;;;11.86;91.25
60817;BME280;51921;51.518;-3.188;2022-10-17T02:54:21;100504.73;;;11.81;91.26
60817;BME280;51921;51.518;-3.188;2022-10-17T02:56:49;100505.91;;;12.51;87.77
60817;BME280;51921;51.518;-3.188;2022-10-17T02:59:12;100510.43;;;11.76;88.45
60817;BME280;51921;51.518;-3.188;2022-10-17T03:01:35;100510.85;;;11.68;89.62
60817;BME280;51921;51.518;-3.188;2022-10-17T03:04:05;100524.93;;;12.17;87.90
60817;BME280;51921;51.518;-3.188;2022-10-17T03:06:25;100529.54;;;11.49;91.73
60817;BME280;51921;51.518;-3.188;2022-10-17T03:08:50;100526.70;;;11.55;89.79
60817;BME280;51921;51.518;-3.188;2022-10-17T03:11:17;100529.05;;;11.82;87.93
60817;BME280;51921;51.518;-3.188;2022-10-17T03:13:41;100532.36;;;12.44;85.37
60817;BME280;51921;51.518;-3.188;2022-10-17T03:16:07;100534.49;;;12.28;84.79
60817;BME280;51921;51.518;-3.188;2022-10-17T03:18:32;100536.02;;;12.59;83.01
60817;BME280;51921;51.518;-3.188;2022-10-17T03:20:57;100537.99;;;12.45;83.44
60817;BME280;51921;51.518;-3.188;2022-10-17T03:23:22;100545.27;;;12.11;85.32
60817;BME280;51921;51.518;-3.188;2022-10-17T03:25:48;100546.31;;;12.30;83.19
60817;BME280;51921;51.518;-3.188;2022-10-17T03:28:13;100544.50;;;12.44;83.45
60817;BME280;51921;51.518;-3.188;2022-10-17T03:30:38;100540.33;;;11.59;88.75
60817;BME280;51921;51.518;-3.188;2022-10-17T03:33:04;100535.59;;;13.29;82.87
60817;BME280;51921;51.518;-3.188;2022-10-17T03:35:29;100534.15;;;12.87;82.92
60817;BME280;51921;51.518;-3.188;2022-10-17T03:37:55;100539.41;;;13.32;82.08
60817;BME280;51921;51.518;-3.188;2022-10-17T03:40:20;100542.21;;;12.66;82.47
60817;BME280;51921;51.518;-3.188;2022-10-17T03:42:45;100554.03;;;12.89;81.94
60817;BME280;51921;51.518;-3.188;2022-10-17T03:45:11;100551.07;;;13.31;81.14
60817;BME280;51921;51.518;-3.188;2022-10-17T03:47:36;100555.17;;;13.33;80.11
60817;BME280;51921;51.518;-3.188;2022-10-17T03:50:02;100563.99;;;12.29;85.21
60817;BME280;51921;51.518;-3.188;2022-10-17T03:52:27;100564.97;;;13.05;82.84
60817;BME280;51921;51.518;-3.188;2022-10-17T03:54:53;100568.03;;;13.26;81.78
60817;BME280;51921;51.518;-3.188;2022-10-17T03:57:18;100570.01;;;14.20;78.15
60817;BME280;51921;51.518;-3.188;2022-10-17T03:59:43;100576.47;;;12.75;83.20
60817;BME280;51921;51.518;-3.188;2022-10-17T04:02:09;100585.12;;;13.05;80.68
60817;BME280;51921;51.518;-3.188;2022-10-17T04:04:34;100585.01;;;12.92;84.32
60817;BME280;51921;51.518;-3.188;2022-10-17T04:07:00;100589.25;;;12.97;82.65
60817;BME280;51921;51.518;-3.188;2022-10-17T04:09:25;100597.70;;;12.41;85.34
60817;BME280;51921;51.518;-3.188;2022-10-17T04:11:51;100595.88;;;12.83;83.78
60817;BME280;51921;51.518;-3.188;2022-10-17T04:14:16;100596.69;;;12.17;86.60
60817;BME280;51921;51.518;-3.188;2022-10-17T04:16:41;100602.02;;;12.43;85.25
60817;BME280;51921;51.518;-3.188;2022-10-17T04:19:09;100603.20;;;11.95;86.58
60817;BME280;51921;51.518;-3.188;2022-10-17T04:21:32;100603.77;;;11.84;87.28
60817;BME280;51921;51.518;-3.188;2022-10-17T04:23:59;100608.63;;;12.18;85.83
60817;BME280;51921;51.518;-3.188;2022-10-17T04:26:23;100615.83;;;12.09;86.14
60817;BME280;51921;51.518;-3.188;2022-10-17T04:28:49;100614.53;;;12.18;86.32
60817;BME280;51921;51.518;-3.188;2022-10-17T04:31:14;100620.36;;;11.95;85.47
60817;BME280;51921;51.518;-3.188;2022-10-17T04:33:40;100620.45;;;12.21;86.76
60817;BME280;51921;51.518;-3.188;2022-10-17T04:36:07;100634.87;;;11.11;89.76
60817;BME280;51921;51.518;-3.188;2022-10-17T04:38:30;100629.25;;;11.52;89.41
60817;BME280;51921;51.518;-3.188;2022-10-17T04:40:56;100639.23;;;12.13;87.50
60817;BME280;51921;51.518;-3.188;2022-10-17T04:43:21;100638.78;;;11.76;87.21
60817;BME280;51921;51.518;-3.188;2022-10-17T04:45:46;100645.51;;;12.69;84.37
60817;BME280;51921;51.518;-3.188;2022-10-17T04:48:11;100651.91;;;12.08;85.33
60817;BME280;51921;51.518;-3.188;2022-10-17T04:50:37;100658.49;;;12.25;86.60
60817;BME280;51921;51.518;-3.188;2022-10-17T04:53:02;100663.43;;;11.92;87.30
60817;BME280;51921;51.518;-3.188;2022-10-17T04:55:27;100662.10;;;11.68;87.62
60817;BME280;51921;51.518;-3.188;2022-10-17T04:57:53;100662.04;;;11.71;90.38
60817;BME280;51921;51.518;-3.188;2022-10-17T05:00:18;100670.35;;;11.58;92.76
60817;BME280;51921;51.518;-3.188;2022-10-17T05:02:44;100674.69;;;11.67;90.42
60817;BME280;51921;51.518;-3.188;2022-10-17T05:05:09;100672.95;;;11.38;91.95
60817;BME280;51921;51.518;-3.188;2022-10-17T05:07:38;100680.69;;;11.43;91.49
60817;BME280;51921;51.518;-3.188;2022-10-17T05:10:00;100686.87;;;11.45;92.52
60817;BME280;51921;51.518;-3.188;2022-10-17T05:12:26;100685.55;;;11.89;90.04
60817;BME280;51921;51.518;-3.188;2022-10-17T05:14:51;100682.31;;;11.55;91.18
60817;BME280;51921;51.518;-3.188;2022-10-17T05:17:16;100688.63;;;11.75;91.04
60817;BME280;51921;51.518;-3.188;2022-10-17T05:19:42;100699.23;;;11.18;93.95
60817;BME280;51921;51.518;-3.188;2022-10-17T05:22:07;100701.15;;;12.18;89.23
60817;BME280;51921;51.518;-3.188;2022-10-17T05:24:33;100713.67;;;11.90;91.28
60817;BME280;51921;51.518;-3.188;2022-10-17T05:26:58;100712.93;;;12.28;89.98
60817;BME280;51921;51.518;-3.188;2022-10-17T05:29:24;100722.46;;;11.62;94.12
60817;BME280;51921;51.518;-3.188;2022-10-17T05:31:49;100719.91;;;11.27;93.35
60817;BME280;51921;51.518;-3.188;2022-10-17T05:34:14;100730.07;;;11.22;92.63
60817;BME280;51921;51.518;-3.188;2022-10-17T05:36:40;100733.22;;;11.29;94.17
60817;BME280;51921;51.518;-3.188;2022-10-17T05:39:05;100739.13;;;11.12;94.39
60817;BME280;51921;51.518;-3.188;2022-10-17T05:41:31;100738.19;;;10.61;97.66
60817;BME280;51921;51.518;-3.188;2022-10-17T05:43:56;100749.69;;;10.65;98.58
60817;BME280;51921;51.518;-3.188;2022-10-17T05:46:21;100755.47;;;10.89;96.16
60817;BME280;51921;51.518;-3.188;2022-10-17T05:48:47;100761.23;;;11.21;93.46
60817;BME280;51921;51.518;-3.188;2022-10-17T05:51:12;100765.02;;;11.28;93.25
60817;BME280;51921;51.518;-3.188;2022-10-17T05:53:39;100773.78;;;11.45;91.25
60817;BME280;51921;51.518;-3.188;2022-10-17T05:56:06;100782.82;;;11.17;93.24
60817;BME280;51921;51.518;-3.188;2022-10-17T05:58:29;100790.12;;;11.38;94.24
60817;BME280;51921;51.518;-3.188;2022-10-17T06:00:57;100792.62;;;11.34;92.38
60817;BME280;51921;51.518;-3.188;2022-10-17T06:03:19;100797.72;;;10.81;93.21
60817;BME280;51921;51.518;-3.188;2022-10-17T06:05:45;100804.76;;;10.08;97.41
60817;BME280;51921;51.518;-3.188;2022-10-17T06:08:10;100801.83;;;10.52;96.72
60817;BME280;51921;51.518;-3.188;2022-10-17T06:10:35;100809.26;;;10.95;94.75
60817;BME280;51921;51.518;-3.188;2022-10-17T06:13:01;100810.21;;;11.05;94.35
60817;BME280;51921;51.518;-3.188;2022-10-17T06:15:26;100810.63;;;11.01;93.94
60817;BME280;51921;51.518;-3.188;2022-10-17T06:17:51;100812.72;;;10.99;95.44
60817;BME280;51921;51.518;-3.188;2022-10-17T06:20:17;100810.63;;;11.20;94.19
60817;BME280;51921;51.518;-3.188;2022-10-17T06:22:42;100813.52;;;10.60;97.05
60817;BME280;51921;51.518;-3.188;2022-10-17T06:25:08;100812.14;;;10.86;96.58
60817;BME280;51921;51.518;-3.188;2022-10-17T06:27:33;100814.85;;;11.18;95.72
60817;BME280;51921;51.518;-3.188;2022-10-17T06:29:59;100817.40;;;11.54;94.33
60817;BME280;51921;51.518;-3.188;2022-10-17T06:32:24;100821.59;;;11.56;93.38
60817;BME280;51921;51.518;-3.188;2022-10-17T06:34:49;100825.96;;;10.85;97.01
60817;BME280;51921;51.518;-3.188;2022-10-17T06:37:15;100827.21;;;11.28;94.09
60817;BME280;51921;51.518;-3.188;2022-10-17T06:39:40;100833.15;;;11.27;94.10
60817;BME280;51921;51.518;-3.188;2022-10-17T06:42:06;100838.56;;;11.16;95.33
60817;BME280;51921;51.518;-3.188;2022-10-17T06:44:31;100845.41;;;10.83;97.39
60817;BME280;51921;51.518;-3.188;2022-10-17T06:46:57;100841.75;;;11.08;95.04
60817;BME280;51921;51.518;-3.188;2022-10-17T06:49:22;100847.43;;;11.02;96.65
60817;BME280;51921;51.518;-3.188;2022-10-17T06:51:48;100845.75;;;11.53;94.34
60817;BME280;51921;51.518;-3.188;2022-10-17T06:54:12;100856.95;;;11.19;94.96
60817;BME280;51921;51.518;-3.188;2022-10-17T06:56:38;100861.86;;;11.21;94.70
60817;BME280;51921;51.518;-3.188;2022-10-17T06:59:03;100872.16;;;10.82;95.85
60817;BME280;51921;51.518;-3.188;2022-10-17T07:01:30;100878.13;;;11.28;94.78
60817;BME280;51921;51.518;-3.188;2022-10-17T07:03:54;100886.80;;;10.84;95.82
60817;BME280;51921;51.518;-3.188;2022-10-17T07:06:19;100892.99;;;10.65;96.85
60817;BME280;51921;51.518;-3.188;2022-10-17T07:08:45;100902.86;;;11.06;96.18
60817;BME280;51921;51.518;-3.188;2022-10-17T07:11:11;100907.41;;;10.72;95.46
60817;BME280;51921;51.518;-3.188;2022-10-17T07:13:36;100903.61;;;10.60;97.17
60817;BME280;51921;51.518;-3.188;2022-10-17T07:16:01;100913.13;;;10.39;98.25
60817;BME280;51921;51.518;-3.188;2022-10-17T07:18:27;100914.49;;;10.37;98.39
60817;BME280;51921;51.518;-3.188;2022-10-17T07:20:53;100917.30;;;10.24;99.41
60817;BME280;51921;51.518;-3.188;2022-10-17T07:23:18;100924.63;;;10.95;95.29
60817;BME280;51921;51.518;-3.188;2022-10-17T07:25:43;100932.93;;;10.35;97.54
60817;BME280;51921;51.518;-3.188;2022-10-17T07:28:09;100937.90;;;11.17;96.80
60817;BME280;51921;51.518;-3.188;2022-10-17T07:30:34;100941.12;;;11.15;95.85
60817;BME280;51921;51.518;-3.188;2022-10-17T07:32:59;100950.66;;;10.85;95.92
60817;BME280;51921;51.518;-3.188;2022-10-17T07:35:25;100959.11;;;10.11;100.00
60817;BME280;51921;51.518;-3.188;2022-10-17T07:37:50;100962.47;;;10.46;99.01
60817;BME280;51921;51.518;-3.188;2022-10-17T07:40:16;100967.03;;;10.54;97.36
60817;BME280;51921;51.518;-3.188;2022-10-17T07:42:41;100971.30;;;10.79;97.42
60817;BME280;51921;51.518;-3.188;2022-10-17T07:45:07;100981.46;;;10.48;98.70
60817;BME280;51921;51.518;-3.188;2022-10-17T07:47:32;100984.88;;;10.40;98.15
60817;BME280;51921;51.518;-3.188;2022-10-17T07:49:57;100990.64;;;10.28;100.00
60817;BME280;51921;51.518;-3.188;2022-10-17T07:52:23;100995.56;;;10.25;98.70
60817;BME280;51921;51.518;-3.188;2022-10-17T07:54:48;101003.31;;;10.46;99.23
60817;BME280;51921;51.518;-3.188;2022-10-17T07:57:14;100999.92;;;10.50;99.44
60817;BME280;51921;51.518;-3.188;2022-10-17T07:59:39;101002.19;;;9.94;100.00
60817;BME280;51921;51.518;-3.188;2022-10-17T08:02:04;101010.42;;;10.25;100.00
60817;BME280;51921;51.518;-3.188;2022-10-17T08:04:30;101016.51;;;10.13;100.00
60817;BME280;51921;51.518;-3.188;2022-10-17T08:06:55;101018.59;;;10.34;100.00
60817;BME280;51921;51.518;-3.188;2022-10-17T08:09:21;101028.09;;;10.58;100.00
60817;BME280;51921;51.518;-3.188;2022-10-17T08:11:46;101035.74;;;10.55;100.00
60817;BME280;51921;51.518;-3.188;2022-10-17T08:14:12;101041.68;;;10.60;100.00
60817;BME280;51921;51.518;-3.188;2022-10-17T08:16:37;101046.43;;;11.21;99.79
60817;BME280;51921;51.518;-3.188;2022-10-17T08:19:03;101044.66;;;10.30;100.00
60817;BME280;51921;51.518;-3.188;2022-10-17T08:21:28;101051.71;;;10.94;100.00
60817;BME280;51921;51.518;-3.188;2022-10-17T08:23:53;101057.77;;;10.30;100.00
60817;BME280;51921;51.518;-3.188;2022-10-17T08:26:19;101064.11;;;10.49;100.00
60817;BME280;51921;51.518;-3.188;2022-10-17T08:28:45;101072.20;;;11.06;99.11
60817;BME280;51921;51.518;-3.188;2022-10-17T08:31:12;101071.94;;;11.25;99.21
60817;BME280;51921;51.518;-3.188;2022-10-17T08:33:35;101076.38;;;11.80;96.22
60817;BME280;51921;51.518;-3.188;2022-10-17T08:36:01;101081.71;;;12.89;92.16
60817;BME280;51921;51.518;-3.188;2022-10-17T08:38:27;101085.69;;;11.76;94.12
60817;BME280;51921;51.518;-3.188;2022-10-17T08:40:59;101089.12;;;12.94;89.59
60817;BME280;51921;51.518;-3.188;2022-10-17T08:43:27;101095.48;;;13.10;87.92
60817;BME280;51921;51.518;-3.188;2022-10-17T08:45:46;101094.48;;;12.88;87.33
60817;BME280;51921;51.518;-3.188;2022-10-17T08:48:15;101101.42;;;13.01;87.44
60817;BME280;51921;51.518;-3.188;2022-10-17T08:50:36;101105.07;;;13.51;82.97
60817;BME280;51921;51.518;-3.188;2022-10-17T08:53:02;101110.61;;;14.17;81.96
60817;BME280;51921;51.518;-3.188;2022-10-17T08:55:28;101116.65;;;13.57;83.02
60817;BME280;51921;51.518;-3.188;2022-10-17T08:57:48;101123.84;;;13.25;84.17
60817;BME280;51921;51.518;-3.188;2022-10-17T09:00:16;101129.01;;;13.25;86.19
60817;BME280;51921;51.518;-3.188;2022-10-17T09:02:49;101135.70;;;13.40;86.43
60817;BME280;51921;51.518;-3.188;2022-10-17T09:05:18;101135.23;;;13.29;86.50
60817;BME280;51921;51.518;-3.188;2022-10-17T09:07:34;101132.04;;;13.17;86.17
60817;BME280;51921;51.518;-3.188;2022-10-17T09:10:02;101143.52;;;13.29;87.40
60817;BME280;51921;51.518;-3.188;2022-10-17T09:12:24;101147.42;;;13.05;85.64
60817;BME280;51921;51.518;-3.188;2022-10-17T09:15:02;101139.47;;;13.38;86.74
60817;BME280;51921;51.518;-3.188;2022-10-17T09:17:20;101155.52;;;13.48;86.36
60817;BME280;51921;51.518;-3.188;2022-10-17T09:19:39;101154.57;;;14.05;82.56
60817;BME280;51921;51.518;-3.188;2022-10-17T09:22:05;101168.35;;;13.55;83.43
60817;BME280;51921;51.518;-3.188;2022-10-17T09:24:37;101162.13;;;14.56;79.26
60817;BME280;51921;51.518;-3.188;2022-10-17T09:26:54;101166.04;;;13.49;82.91
60817;BME280;51921;51.518;-3.188;2022-10-17T09:29:21;101174.81;;;13.90;81.92
60817;BME280;51921;51.518;-3.188;2022-10-17T09:31:47;101184.54;;;13.65;82.04
60817;BME280;51921;51.518;-3.188;2022-10-17T09:34:09;101188.99;;;14.32;81.84
60817;BME280;51921;51.518;-3.188;2022-10-17T09:36:35;101194.97;;;13.42;82.11
60817;BME280;51921;51.518;-3.188;2022-10-17T09:39:01;101200.14;;;13.18;83.21
60817;BME280;51921;51.518;-3.188;2022-10-17T09:41:31;101212.87;;;13.12;84.56
60817;BME280;51921;51.518;-3.188;2022-10-17T09:43:52;101209.26;;;12.77;86.24
60817;BME280;51921;51.518;-3.188;2022-10-17T09:46:21;101214.05;;;13.34;81.87
60817;BME280;51921;51.518;-3.188;2022-10-17T09:48:43;101225.02;;;14.10;80.54
60817;BME280;51921;51.518;-3.188;2022-10-17T09:51:06;101233.21;;;14.52;79.48
60817;BME280;51921;51.518;-3.188;2022-10-17T09:53:34;101235.64;;;15.07;74.35
60817;BME280;51921;51.518;-3.188;2022-10-17T09:55:57;101242.21;;;14.20;79.00
60817;BME280;51921;51.518;-3.188;2022-10-17T09:58:22;101247.51;;;14.80;77.71
60817;BME280;51921;51.518;-3.188;2022-10-17T10:00:47;101263.42;;;14.70;74.99
60817;BME280;51921;51.518;-3.188;2022-10-17T10:03:16;101254.16;;;14.21;78.27
60817;BME280;51921;51.518;-3.188;2022-10-17T10:05:38;101254.41;;;13.72;78.60
60817;BME280;51921;51.518;-3.188;2022-10-17T10:08:05;101266.30;;;13.36;80.28
60817;BME280;51921;51.518;-3.188;2022-10-17T10:10:30;101273.64;;;14.15;77.98
60817;BME280;51921;51.518;-3.188;2022-10-17T10:13:06;101279.59;;;12.88;81.91
60817;BME280;51921;51.518;-3.188;2022-10-17T10:15:31;101277.31;;;13.98;79.02
60817;BME280;51921;51.518;-3.188;2022-10-17T10:17:45;101284.20;;;13.44;80.44
60817;BME280;51921;51.518;-3.188;2022-10-17T10:20:24;101282.84;;;14.35;77.19
60817;BME280;51921;51.518;-3.188;2022-10-17T10:22:35;101290.32;;;13.91;78.78
60817;BME280;51921;51.518;-3.188;2022-10-17T10:25:09;101298.51;;;13.54;79.05
60817;BME280;51921;51.518;-3.188;2022-10-17T10:27:28;101302.82;;;14.07;77.40
60817;BME280;51921;51.518;-3.188;2022-10-17T10:29:52;101300.69;;;13.89;77.32
60817;BME280;51921;51.518;-3.188;2022-10-17T10:32:20;101296.64;;;13.86;78.49
60817;BME280;51921;51.518;-3.188;2022-10-17T10:34:47;101311.32;;;13.20;81.55
60817;BME280;51921;51.518;-3.188;2022-10-17T10:37:15;101321.07;;;13.62;81.48
60817;BME280;51921;51.518;-3.188;2022-10-17T10:39:42;101309.12;;;13.99;80.05
60817;BME280;51921;51.518;-3.188;2022-10-17T10:41:59;101307.69;;;15.06;73.48
60817;BME280;51921;51.518;-3.188;2022-10-17T10:44:27;101310.29;;;15.49;69.51
60817;BME280;51921;51.518;-3.188;2022-10-17T10:49:28;101305.00;;;14.32;73.31
60817;BME280;51921;51.518;-3.188;2022-10-17T10:51:43;101312.36;;;13.32;76.13
60817;BME280;51921;51.518;-3.188;2022-10-17T10:54:12;101311.75;;;13.51;76.21
60817;BME280;51921;51.518;-3.188;2022-10-17T10:56:36;101313.73;;;13.88;75.20
60817;BME280;51921;51.518;-3.188;2022-10-17T10:59:01;101322.35;;;13.66;76.00
60817;BME280;51921;51.518;-3.188;2022-10-17T11:01:28;101327.62;;;13.24;79.12
60817;BME280;51921;51.518;-3.188;2022-10-17T11:03:56;101335.05;;;13.65;77.41
60817;BME280;51921;51.518;-3.188;2022-10-17T11:06:18;101341.33;;;13.44;76.65
60817;BME280;51921;51.518;-3.188;2022-10-17T11:08:42;101344.17;;;13.44;76.55
60817;BME280;51921;51.518;-3.188;2022-10-17T11:11:10;101360.48;;;14.07;75.10
60817;BME280;51921;51.518;-3.188;2022-10-17T11:13:32;101355.64;;;14.10;73.43
60817;BME280;51921;51.518;-3.188;2022-10-17T11:15:58;101357.46;;;13.29;75.28
60817;BME280;51921;51.518;-3.188;2022-10-17T11:18:24;101374.88;;;14.12;74.03
60817;BME280;51921;51.518;-3.188;2022-10-17T11:20:51;101373.76;;;13.81;74.54
60817;BME280;51921;51.518;-3.188;2022-10-17T11:23:15;101379.15;;;14.54;73.33
60817;BME280;51921;51.518;-3.188;2022-10-17T11:25:36;101384.88;;;14.69;71.28
60817;BME280;51921;51.518;-3.188;2022-10-17T11:28:01;101388.66;;;14.99;69.13
60817;BME280;51921;51.518;-3.188;2022-10-17T11:30:30;101394.32;;;14.47;71.47
60817;BME280;51921;51.518;-3.188;2022-10-17T11:32:54;101397.02;;;14.50;70.07
60817;BME280;51921;51.518;-3.188;2022-10-17T11:35:20;101400.70;;;14.28;72.09
60817;BME280;51921;51.518;-3.188;2022-10-17T11:37:45;101406.62;;;14.32;71.21
60817;BME280;51921;51.518;-3.188;2022-10-17T11:40:14;101409.27;;;14.46;70.94
60817;BME280;51921;51.518;-3.188;2022-10-17T11:42:36;101421.42;;;13.92;73.07
60817;BME280;51921;51.518;-3.188;2022-10-17T11:45:01;101418.35;;;14.40;72.61
60817;BME280;51921;51.518;-3.188;2022-10-17T11:47:31;101423.21;;;13.95;72.76
60817;BME280;51921;51.518;-3.188;2022-10-17T11:49:50;101426.61;;;14.26;72.52
60817;BME280;51921;51.518;-3.188;2022-10-17T11:52:26;101430.52;;;14.62;71.17
60817;BME280;51921;51.518;-3.188;2022-10-17T11:54:41;101436.80;;;15.06;70.42
60817;BME280;51921;51.518;-3.188;2022-10-17T11:57:13;101444.30;;;15.25;68.73
60817;BME280;51921;51.518;-3.188;2022-10-17T11:59:44;101439.26;;;15.74;66.50
60817;BME280;51921;51.518;-3.188;2022-10-17T12:01:57;101447.86;;;15.09;67.15
60817;BME280;51921;51.518;-3.188;2022-10-17T12:04:29;101454.88;;;15.04;66.96
60817;BME280;51921;51.518;-3.188;2022-10-17T12:06:58;101456.76;;;14.29;67.50
60817;BME280;51921;51.518;-3.188;2022-10-17T12:09:16;101465.76;;;14.07;69.79
60817;BME280;51921;51.518;-3.188;2022-10-17T12:11:48;101469.92;;;14.70;68.44
60817;BME280;51921;51.518;-3.188;2022-10-17T12:14:02;101485.07;;;14.09;73.45
60817;BME280;51921;51.518;-3.188;2022-10-17T12:16:41;101477.64;;;13.51;80.31
60817;BME280;51921;51.518;-3.188;2022-10-17T12:21:18;101490.76;;;13.89;79.79
60817;BME280;51921;51.518;-3.188;2022-10-17T12:23:50;101490.99;;;15.17;72.16
60817;BME280;51921;51.518;-3.188;2022-10-17T12:26:09;101490.94;;;14.75;73.65
60817;BME280;51921;51.518;-3.188;2022-10-17T12:28:40;101486.62;;;15.57;69.16
60817;BME280;51921;51.518;-3.188;2022-10-17T12:31:01;101494.28;;;16.02;66.60
60817;BME280;51921;51.518;-3.188;2022-10-17T12:33:30;101489.79;;;15.02;66.75